Time;durP1;ratioP1;P1;durP2;ratioP2;P2;SDS_P1;SDS_P2;PMS_P1;PMS_P2;Temp;Humidity;BMP_temperature;BMP_pressure;BME280_temperature;BME280_humidity;BME280_pressure;Samples;Min_cycle;Max_cycle;Signal;HPM_P1;HPM_P2
2022/01/05 00:01:16;;;;;;;1.73;1.20;;;8.20;92.80;;;8.76;63.98;97176.59;4947033;28;123525;-87
2022/01/05 00:03:43;;;;;;;1.77;1.10;;;8.20;92.80;;;8.75;63.74;97174.97;4950395;28;113596;-85
2022/01/05 00:06:10;;;;;;;1.10;1.00;;;8.30;92.70;;;8.75;63.92;97163.94;4948853;28;114017;-87
2022/01/05 00:08:38;;;;;;;1.10;0.90;;;8.20;92.70;;;8.78;63.90;97167.97;4953623;28;123910;-87
2022/01/05 00:11:06;;;;;;;1.30;1.00;;;8.20;92.70;;;8.78;63.83;97168.75;4950728;28;123962;-87
2022/01/05 00:13:35;;;;;;;2.20;1.03;;;8.20;92.60;;;8.77;63.71;97169.91;4950897;28;114219;-87
2022/01/05 00:16:02;;;;;;;1.20;1.10;;;8.20;92.60;;;8.77;63.38;97164.41;4951839;28;113252;-87
2022/01/05 00:18:29;;;;;;;1.17;0.80;;;8.20;92.50;;;8.77;63.40;97166.38;4950215;28;123140;-87
2022/01/05 00:20:57;;;;;;;0.90;0.90;;;8.20;92.50;;;8.76;63.29;97162.81;4950736;28;123053;-86
2022/01/05 00:23:24;;;;;;;1.07;0.97;;;8.20;92.50;;;8.77;63.73;97169.91;4956921;28;114406;-86
2022/01/05 00:25:51;;;;;;;1.00;0.90;;;8.20;92.50;;;8.78;63.33;97179.78;4958969;28;112775;-88
2022/01/05 00:28:18;;;;;;;1.07;0.97;;;8.20;92.40;;;8.77;63.14;97164.41;4951167;28;124324;-86
2022/01/05 00:30:44;;;;;;;1.20;1.00;;;8.20;92.40;;;8.77;63.14;97166.38;4956702;28;123886;-87
2022/01/05 00:33:15;;;;;;;1.10;1.00;;;8.20;92.30;;;8.76;63.12;97165.56;4953060;28;113999;-86
2022/01/05 00:35:42;;;;;;;0.90;0.80;;;8.20;92.30;;;8.75;63.12;97146.63;4938303;28;114005;-86
2022/01/05 00:38:09;;;;;;;1.00;0.83;;;8.20;92.20;;;8.73;63.00;97135.97;4942153;28;123997;-87
2022/01/05 00:40:36;;;;;;;0.93;0.83;;;8.20;92.20;;;8.74;63.07;97134.00;4964146;28;123969;-87
2022/01/05 00:43:02;;;;;;;0.90;0.90;;;8.20;92.20;;;8.74;63.07;97129.31;4953029;28;114195;-87
2022/01/05 00:45:31;;;;;;;0.80;0.80;;;8.20;92.10;;;8.72;62.82;97137.09;4950845;28;113941;-87
2022/01/05 00:47:57;;;;;;;1.00;0.90;;;8.20;92.10;;;8.71;62.71;97135.50;4951410;28;124034;-87
2022/01/05 00:50:24;;;;;;;1.13;1.03;;;8.20;92.00;;;8.69;62.71;97126.78;4951179;28;123605;-87
2022/01/05 00:52:50;;;;;;;1.07;0.90;;;8.20;92.00;;;8.68;62.79;97116.09;4953769;28;113225;-87
2022/01/05 00:55:17;;;;;;;0.80;0.80;;;8.20;91.90;;;8.65;62.28;97120.34;4957981;28;113388;-87
2022/01/05 00:57:45;;;;;;;1.00;0.90;;;8.20;91.90;;;8.65;62.50;97128.63;4945349;28;123972;-87
2022/01/05 01:00:12;;;;;;;1.20;1.10;;;8.20;91.90;;;8.65;62.29;97109.34;4939346;28;123770;-85
2022/01/05 01:02:38;;;;;;;0.80;0.77;;;8.10;91.80;;;8.62;62.25;97110.00;4952100;28;114466;-86
2022/01/05 01:05:05;;;;;;;1.67;0.80;;;8.10;91.70;;;8.59;62.28;97099.66;4960758;28;112945;-87
2022/01/05 01:07:33;;;;;;;1.00;0.90;;;8.10;91.80;;;8.57;62.31;97097.28;4940300;28;124156;-87
2022/01/05 01:09:59;;;;;;;1.00;0.90;;;8.10;91.70;;;8.55;62.51;97109.78;4951038;28;124005;-87
2022/01/05 01:12:26;;;;;;;0.80;0.80;;;8.10;91.70;;;8.52;62.44;97126.97;4950558;28;115235;-86
2022/01/05 01:14:53;;;;;;;1.00;0.90;;;8.10;91.70;;;8.50;62.68;97134.75;4960845;28;114571;-87
2022/01/05 01:17:22;;;;;;;0.80;0.80;;;8.00;91.60;;;8.49;62.39;97128.47;4952679;28;124041;-87
2022/01/05 01:19:48;;;;;;;0.90;0.80;;;8.00;91.70;;;8.45;62.34;97127.50;4950892;28;122820;-86
2022/01/05 01:22:16;;;;;;;0.80;0.80;;;8.00;91.70;;;8.42;62.33;97127.41;4951869;28;114319;-88
2022/01/05 01:24:42;;;;;;;0.80;0.80;;;7.90;91.60;;;8.37;62.64;97131.94;4952294;28;113057;-87
2022/01/05 01:27:09;;;;;;;1.00;0.90;;;7.90;91.60;;;8.37;62.50;97142.13;4960324;28;123973;-87
2022/01/05 01:29:35;;;;;;;0.80;0.80;;;7.90;91.60;;;8.34;62.24;97143.63;4951377;28;124069;-86
2022/01/05 01:32:04;;;;;;;0.80;0.80;;;7.90;91.60;;;8.37;62.46;97153.16;4962856;28;113903;-86
2022/01/05 01:34:31;;;;;;;0.80;0.80;;;7.90;91.70;;;8.34;62.33;97154.63;4949074;28;113108;-87
2022/01/05 01:36:58;;;;;;;1.00;0.87;;;7.90;91.60;;;8.33;62.34;97153.03;4948746;28;124116;-86
2022/01/05 01:39:25;;;;;;;1.00;0.80;;;7.90;91.60;;;8.35;62.58;97160.91;4945410;28;124035;-87
2022/01/05 01:41:51;;;;;;;0.90;0.80;;;7.90;91.70;;;8.36;62.06;97168.84;4951095;28;113187;-87
2022/01/05 01:44:37;;;;;;;0.80;0.77;;;8.00;91.70;;;8.40;62.20;97156.03;4944155;28;113577;-87
2022/01/05 01:47:04;;;;;;;1.07;0.97;;;7.90;91.70;;;8.38;62.40;97151.97;4933927;28;122043;-87
2022/01/05 01:49:31;;;;;;;1.10;1.00;;;7.90;91.70;;;8.37;62.44;97153.94;4953814;28;123978;-86
2022/01/05 01:51:59;;;;;;;1.10;0.90;;;7.90;91.60;;;8.35;62.31;97145.22;4954166;28;113095;-87
2022/01/05 01:54:26;;;;;;;0.83;0.83;;;7.90;91.60;;;8.32;62.27;97140.38;4952777;28;113837;-87
2022/01/05 01:56:53;;;;;;;1.17;1.00;;;7.90;91.60;;;8.30;62.47;97142.69;4950581;28;124139;-87
2022/01/05 01:59:20;;;;;;;1.17;0.87;;;7.80;91.60;;;8.29;62.07;97146.56;4948907;28;122785;-88
2022/01/05 02:01:47;;;;;;;2.03;0.80;;;7.80;91.60;;;8.28;62.59;97153.22;4949585;28;114513;-86
2022/01/05 02:04:14;;;;;;;1.00;0.80;;;7.80;91.60;;;8.27;62.66;97148.84;4952456;28;114228;-87
2022/01/05 02:06:41;;;;;;;0.90;0.80;;;7.80;91.60;;;8.27;62.49;97150.81;4948485;28;123189;-86
2022/01/05 02:09:08;;;;;;;0.83;0.80;;;7.80;91.60;;;8.25;62.61;97175.09;4951112;28;123797;-86
2022/01/05 02:11:38;;;;;;;1.00;0.90;;;7.70;91.70;;;8.23;62.35;97169.94;4959334;28;114383;-86
2022/01/05 02:14:06;;;;;;;1.00;0.90;;;7.70;91.70;;;8.22;62.71;97190.34;4973701;28;111953;-85
2022/01/05 02:16:40;;;;;;;0.87;0.80;;;7.80;91.70;;;8.23;62.56;97169.94;4947476;28;124003;-86
2022/01/05 02:19:07;;;;;;;0.80;0.80;;;7.70;91.70;;;8.21;62.78;97171.41;4958208;28;124115;-87
2022/01/05 02:21:38;;;;;;;1.00;0.90;;;7.70;91.70;;;8.19;62.61;97163.50;4949157;28;113300;-85
2022/01/05 02:24:07;;;;;;;1.50;0.83;;;7.70;91.70;;;8.19;63.13;97169.81;4953658;28;114015;-85
2022/01/05 02:26:35;;;;;;;1.07;1.00;;;7.70;91.80;;;8.21;62.99;97166.72;4948705;28;123934;-87
2022/01/05 02:29:03;;;;;;;1.10;0.97;;;7.70;91.80;;;8.24;62.89;97173.50;4947882;28;123249;-86
2022/01/05 02:31:30;;;;;;;0.80;0.73;;;7.70;91.80;;;8.25;62.85;97156.66;4935017;28;113516;-86
2022/01/05 02:33:56;;;;;;;1.10;1.00;;;7.80;91.80;;;8.23;62.79;97161.69;4951080;28;112912;-87
2022/01/05 02:36:23;;;;;;;1.30;0.90;;;7.80;91.80;;;8.24;63.11;97168.78;4951118;28;123998;-86
2022/01/05 02:38:52;;;;;;;1.00;0.90;;;7.80;91.80;;;8.25;62.98;97177.84;4949544;28;123680;-87
2022/01/05 02:41:20;;;;;;;0.80;0.80;;;7.80;91.80;;;8.24;62.95;97166.03;4952597;28;114617;-86
2022/01/05 02:43:47;;;;;;;0.90;0.90;;;7.80;91.80;;;8.26;63.14;97169.25;4949486;28;112832;-85
2022/01/05 02:46:18;;;;;;;1.20;1.00;;;7.80;91.90;;;8.28;62.99;97172.50;4947591;28;123035;-85
2022/01/05 02:48:47;;;;;;;0.97;0.87;;;7.80;91.90;;;8.30;63.20;97181.22;4968407;28;122742;-86
2022/01/05 02:51:14;;;;;;;1.00;0.90;;;7.80;91.90;;;8.30;62.97;97177.63;4948774;28;115662;-86
2022/01/05 02:53:41;;;;;;;1.63;0.90;;;7.80;91.90;;;8.31;62.84;97182.81;4958283;28;115032;-87
2022/01/05 02:56:09;;;;;;;0.80;0.80;;;7.90;91.90;;;8.32;63.01;97178.91;4948177;28;123765;-86
2022/01/05 02:58:36;;;;;;;0.80;0.80;;;7.80;91.90;;;8.34;62.87;97176.63;4949941;28;123629;-86
2022/01/05 03:01:03;;;;;;;1.30;1.03;;;7.80;91.90;;;8.33;62.82;97186.03;4949693;28;113251;-87
2022/01/05 03:03:30;;;;;;;1.00;0.90;;;7.90;91.90;;;8.32;63.02;97181.66;4973830;28;113473;-87
2022/01/05 03:05:57;;;;;;;1.20;0.90;;;7.90;91.90;;;8.31;63.05;97177.31;4947679;28;123793;-86
2022/01/05 03:08:24;;;;;;;0.90;0.80;;;8.00;92.00;;;8.32;63.01;97189.91;4950044;28;124038;-86
2022/01/05 03:10:50;;;;;;;1.70;1.10;;;7.90;92.10;;;8.30;63.42;97181.22;4951626;28;112595;-85
2022/01/05 03:13:17;;;;;;;1.00;0.90;;;7.90;92.10;;;8.25;63.56;97175.91;4947013;28;113959;-86
2022/01/05 03:15:43;;;;;;;1.17;1.07;;;7.80;92.00;;;8.21;63.58;97194.22;4949296;28;123164;-86
2022/01/05 03:18:10;;;;;;;1.30;1.20;;;7.80;92.10;;;8.20;63.48;97181.63;4983615;28;122477;-87
2022/01/05 03:20:39;;;;;;;0.80;0.80;;;7.80;92.20;;;8.21;63.61;97187.94;4948429;28;113320;-86
2022/01/05 03:23:06;;;;;;;0.80;0.70;;;7.80;92.20;;;8.21;63.57;97193.44;4961700;28;113146;-85
2022/01/05 03:25:32;;;;;;;0.90;0.90;;;7.70;92.20;;;8.15;63.63;97181.81;4961805;28;124214;-86
2022/01/05 03:27:59;;;;;;;0.90;0.90;;;7.70;92.20;;;8.14;64.02;97185.69;4956066;28;123022;-87
2022/01/05 03:30:45;;;;;;;1.30;0.90;;;7.70;92.20;;;8.16;63.97;97186.19;4932779;28;114186;-87
2022/01/05 03:33:12;;;;;;;1.33;0.90;;;7.70;92.30;;;8.12;63.26;97188.00;4961432;28;113734;-86
2022/01/05 03:35:45;;;;;;;2.80;0.90;;;7.70;92.30;;;8.12;64.32;97186.06;4956908;28;124000;-86
2022/01/05 03:38:15;;;;;;;1.27;1.00;;;7.60;92.30;;;8.12;64.23;97177.81;4952043;28;122740;-86
2022/01/05 03:40:44;;;;;;;1.90;0.90;;;7.70;92.40;;;8.11;63.96;97183.63;4953563;28;115261;-86
2022/01/05 03:43:11;;;;;;;0.80;0.80;;;7.60;92.40;;;8.09;64.18;97175.72;4952822;28;115044;-86
2022/01/05 03:45:38;;;;;;;0.97;0.87;;;7.60;92.30;;;8.09;63.96;97197.72;4955693;28;124050;-87
2022/01/05 03:48:08;;;;;;;1.00;0.90;;;7.60;92.30;;;8.10;63.70;97182.03;4951222;28;122707;-87
2022/01/05 03:50:36;;;;;;;1.00;0.90;;;7.60;92.30;;;8.11;63.60;97180.88;4942977;28;114464;-86
2022/01/05 03:53:04;;;;;;;0.80;0.70;;;7.60;92.30;;;8.11;63.94;97189.13;4932905;28;113601;-86
2022/01/05 03:55:32;;;;;;;1.20;0.80;;;7.60;92.20;;;8.10;63.38;97198.53;4950238;28;124072;-87
2022/01/05 03:58:00;;;;;;;0.83;0.80;;;7.60;92.20;;;8.07;63.33;97190.97;4937744;28;121681;-87
2022/01/05 04:00:29;;;;;;;1.10;0.90;;;7.60;92.20;;;8.05;63.35;97180.28;4951993;28;114329;-86
2022/01/05 04:02:59;;;;;;;0.90;0.80;;;7.50;92.10;;;8.03;63.19;97201.81;4949900;28;114032;-87
2022/01/05 04:05:28;;;;;;;0.87;0.80;;;7.60;92.10;;;7.99;63.52;97192.63;4939678;28;123364;-86
2022/01/05 04:07:58;;;;;;;0.90;0.90;;;7.50;92.10;;;7.96;63.58;97205.09;4938006;28;123869;-87
2022/01/05 04:10:25;;;;;;;2.70;0.80;;;7.50;92.10;;;7.95;63.85;97227.41;4951335;28;114489;-85
2022/01/05 04:12:52;;;;;;;1.00;0.90;;;7.50;92.10;;;7.91;63.42;97219.03;4951699;28;113877;-87
2022/01/05 04:15:19;;;;;;;1.93;0.90;;;7.60;92.10;;;7.89;63.25;97217.75;4953143;28;123804;-86
2022/01/05 04:17:46;;;;;;;0.87;0.80;;;7.70;92.10;;;7.90;63.48;97238.66;4950125;28;123782;-85
2022/01/05 04:20:16;;;;;;;1.00;0.90;;;7.60;92.10;;;7.87;63.78;97240.13;4929094;28;113351;-87
2022/01/05 04:22:44;;;;;;;1.00;0.90;;;7.40;92.00;;;7.85;63.63;97247.88;4949991;28;114016;-87
2022/01/05 04:25:11;;;;;;;1.03;0.80;;;7.40;92.10;;;7.83;63.91;97241.91;4955996;28;124466;-87
2022/01/05 04:27:38;;;;;;;1.10;0.90;;;7.70;92.20;;;7.81;63.68;97235.13;4949655;28;124072;-86
2022/01/05 04:30:09;;;;;;;1.03;0.90;;;7.40;92.10;;;7.81;63.88;97246.91;4982085;28;114630;-87
2022/01/05 04:32:35;;;;;;;0.83;0.83;;;7.40;92.20;;;7.80;64.21;97253.56;4985609;28;113449;-86
2022/01/05 04:35:04;;;;;;;0.80;0.77;;;7.40;92.20;;;7.81;63.94;97252.41;4962693;28;124244;-86
2022/01/05 04:37:32;;;;;;;2.37;1.00;;;7.40;92.20;;;7.80;63.86;97256.31;4950977;28;123943;-88
2022/01/05 04:40:00;;;;;;;0.80;0.80;;;7.40;92.20;;;7.79;64.09;97260.22;4954549;28;114572;-87
2022/01/05 04:42:26;;;;;;;1.43;0.90;;;7.40;92.30;;;7.79;64.48;97271.22;4956099;28;113857;-87
2022/01/05 04:44:54;;;;;;;1.17;0.90;;;7.40;92.40;;;7.79;64.66;97278.63;4946396;28;123905;-87
2022/01/05 04:47:21;;;;;;;0.80;0.80;;;7.40;92.50;;;7.77;64.57;97284.47;4959335;28;122769;-86
2022/01/05 04:49:48;;;;;;;0.80;0.80;;;7.40;92.50;;;7.77;64.60;97284.47;4950820;28;114454;-86
2022/01/05 04:52:15;;;;;;;1.20;0.93;;;7.40;92.60;;;7.77;64.66;97289.19;4984681;28;113991;-86
2022/01/05 04:54:41;;;;;;;0.80;0.80;;;7.40;92.70;;;7.74;65.16;97305.19;4955732;28;123194;-87
2022/01/05 04:57:08;;;;;;;1.10;1.00;;;7.40;92.80;;;7.71;65.55;97302.28;4956572;28;123632;-86
2022/01/05 04:59:35;;;;;;;1.10;1.00;;;7.30;92.90;;;7.67;65.29;97295.84;4964587;28;113973;-87
2022/01/05 05:02:02;;;;;;;0.80;0.80;;;7.30;92.90;;;7.63;65.30;97300.38;4933368;28;111572;-86
2022/01/05 05:04:28;;;;;;;0.80;0.80;;;7.20;92.90;;;7.61;65.36;97302.66;4940826;28;124015;-87
2022/01/05 05:06:55;;;;;;;1.07;0.83;;;7.20;93.00;;;7.59;65.59;97300.25;4950163;28;123916;-86
2022/01/05 05:09:21;;;;;;;0.80;0.80;;;7.20;93.10;;;7.59;66.11;97316.72;4953409;28;114142;-86
2022/01/05 05:11:49;;;;;;;0.80;0.80;;;7.20;93.10;;;7.59;66.19;97303.00;4950516;28;114050;-87
2022/01/05 05:14:15;;;;;;;1.00;0.90;;;7.20;93.20;;;7.57;65.70;97318.19;4981044;28;124041;-86
2022/01/05 05:16:43;;;;;;;0.90;0.90;;;7.20;93.20;;;7.59;66.31;97321.44;4952681;28;123944;-87
2022/01/05 05:19:10;;;;;;;0.83;0.83;;;7.20;93.40;;;7.58;66.44;97339.06;4936890;28;113416;-87
2022/01/05 05:21:36;;;;;;;2.23;2.03;;;7.20;93.40;;;7.55;66.12;97353.44;4939717;28;114884;-87
2022/01/05 05:24:03;;;;;;;1.20;1.10;;;7.10;93.30;;;7.55;66.31;97424.88;4962733;28;123172;-87
2022/01/05 05:26:29;;;;;;;1.10;0.90;;;7.10;93.30;;;7.46;64.72;97422.16;4961250;28;124637;-87
2022/01/05 05:28:56;;;;;;;1.20;1.10;;;7.10;92.50;;;7.34;64.18;97442.06;4959801;28;113490;-86
2022/01/05 05:31:23;;;;;;;1.27;1.00;;;7.10;92.30;;;7.16;63.44;97440.47;4940748;28;113499;-87
2022/01/05 05:33:49;;;;;;;1.20;1.10;;;6.80;91.60;;;6.96;62.87;97453.72;4954230;28;123256;-87
2022/01/05 05:36:16;;;;;;;1.43;0.90;;;6.70;91.40;;;6.80;63.26;97456.13;4949811;28;124620;-87
2022/01/05 05:38:43;;;;;;;1.40;1.00;;;6.50;91.30;;;6.64;62.98;97465.94;4946794;28;114169;-86
2022/01/05 05:41:10;;;;;;;1.27;1.00;;;6.40;91.20;;;6.53;62.84;97483.81;4949786;28;113929;-87
2022/01/05 05:43:37;;;;;;;2.90;1.33;;;6.30;91.20;;;6.41;63.53;97487.97;4947100;28;123521;-87
2022/01/05 05:46:04;;;;;;;1.57;0.90;;;6.20;91.20;;;6.34;63.73;97501.34;4947176;28;123076;-86
2022/01/05 05:48:30;;;;;;;1.10;1.00;;;6.10;91.30;;;6.29;63.40;97517.94;4960637;28;114071;-86
2022/01/05 05:50:58;;;;;;;1.00;0.90;;;6.40;91.50;;;6.23;63.22;97516.44;4982918;28;113120;-87
2022/01/05 05:53:24;;;;;;;1.10;1.00;;;6.00;91.40;;;6.13;64.21;97514.00;4961641;28;123008;-86
2022/01/05 05:55:51;;;;;;;1.60;1.00;;;5.90;91.30;;;6.06;63.66;97524.59;4945831;28;123839;-87
2022/01/05 05:58:17;;;;;;;1.10;1.00;;;5.80;91.30;;;6.00;63.84;97526.66;4947595;28;113554;-86
2022/01/05 06:00:44;;;;;;;1.03;0.97;;;5.80;91.40;;;5.93;64.15;97521.63;4948816;28;113032;-87
2022/01/05 06:03:10;;;;;;;1.10;1.00;;;5.70;91.40;;;5.87;64.16;97533.00;4954524;28;121899;-87
2022/01/05 06:05:37;;;;;;;0.83;0.80;;;5.60;91.40;;;5.84;64.04;97534.44;4951453;28;122323;-87
2022/01/05 06:08:04;;;;;;;1.67;1.20;;;5.60;91.50;;;5.83;64.44;97530.09;4954807;28;114327;-86
2022/01/05 06:10:49;;;;;;;1.60;1.27;;;5.50;91.60;;;5.84;63.69;97534.44;4951331;28;113910;-87
2022/01/05 06:13:18;;;;;;;2.00;1.40;;;5.50;91.70;;;5.82;64.03;97538.63;4954918;28;121754;-87
2022/01/05 06:15:46;;;;;;;1.37;1.00;;;5.50;91.70;;;5.82;64.22;97552.31;4950617;28;122843;-87
2022/01/05 06:18:13;;;;;;;1.30;1.20;;;6.40;92.10;;;5.80;63.92;97551.81;4950339;28;114293;-87
2022/01/05 06:20:39;;;;;;;1.40;1.30;;;5.50;91.80;;;5.83;64.14;97564.88;4952259;28;113853;-87
2022/01/05 06:23:06;;;;;;;0.90;0.90;;;5.50;91.90;;;5.86;64.65;97567.84;4947910;28;123244;-86
2022/01/05 06:25:33;;;;;;;1.90;1.20;;;5.50;91.90;;;5.92;64.45;97574.00;4947923;28;123798;-87
2022/01/05 06:27:59;;;;;;;2.30;1.33;;;5.50;91.90;;;5.96;64.46;97585.97;4947309;28;114355;-85
2022/01/05 06:30:28;;;;;;;1.47;1.03;;;5.90;92.10;;;6.00;64.46;97586.97;4945795;28;113874;-86
2022/01/05 06:32:54;;;;;;;1.20;1.10;;;5.60;92.00;;;6.02;63.94;97595.72;4946391;28;123939;-86
2022/01/05 06:35:23;;;;;;;1.10;1.00;;;5.80;92.00;;;6.01;64.80;97605.03;4952876;28;122695;-86
2022/01/05 06:37:52;;;;;;;1.83;1.37;;;5.50;91.90;;;6.03;63.88;97619.25;4933117;28;112542;-86
2022/01/05 06:40:19;;;;;;;1.20;1.10;;;5.60;91.90;;;6.02;64.41;97614.06;4934312;28;113055;-85
2022/01/05 06:42:46;;;;;;;1.10;1.00;;;5.70;91.90;;;6.02;64.47;97617.66;4947098;28;124020;-86
2022/01/05 06:45:13;;;;;;;1.30;1.20;;;5.60;91.90;;;6.00;63.98;97614.41;4950540;28;123623;-85
2022/01/05 06:47:39;;;;;;;2.17;1.40;;;5.60;91.90;;;5.99;64.20;97618.25;4932179;28;113356;-85
2022/01/05 06:50:10;;;;;;;1.83;1.30;;;5.60;91.90;;;6.00;64.34;97628.09;4967486;28;113444;-86
2022/01/05 06:52:38;;;;;;;3.43;1.30;;;5.60;92.00;;;6.03;64.46;97634.91;4931137;28;123428;-86
2022/01/05 06:55:07;;;;;;;4.33;1.30;;;5.60;92.00;;;6.02;64.65;97636.00;4964382;28;123905;-87
2022/01/05 06:57:34;;;;;;;1.23;1.10;;;6.90;92.50;;;5.98;64.79;97635.81;4953166;28;114918;-85
2022/01/05 07:00:00;;;;;;;1.57;1.20;;;5.50;91.90;;;5.97;64.39;97642.44;4951984;28;114865;-86
2022/01/05 07:02:27;;;;;;;1.23;1.10;;;5.50;91.90;;;6.00;64.95;97652.78;4946417;28;123987;-87
2022/01/05 07:04:54;;;;;;;4.47;1.87;;;5.50;92.00;;;6.04;64.57;97648.28;4947872;28;123080;-86
2022/01/05 07:07:21;;;;;;;1.40;1.20;;;5.60;92.10;;;6.08;64.10;97652.03;4944360;28;113964;-86
2022/01/05 07:09:47;;;;;;;1.83;1.27;;;5.60;92.10;;;6.10;64.41;97647.06;4940588;28;113829;-87
2022/01/05 07:12:14;;;;;;;0.90;0.90;;;5.60;92.10;;;6.11;64.30;97650.59;4950189;28;123789;-86
2022/01/05 07:14:41;;;;;;;1.07;0.97;;;5.60;92.00;;;6.11;63.91;97656.91;4934166;28;123312;-86
2022/01/05 07:17:07;;;;;;;1.33;1.00;;;5.70;92.10;;;6.10;64.05;97669.00;4934268;28;113722;-86
2022/01/05 07:19:34;;;;;;;1.20;1.10;;;5.60;92.00;;;6.08;64.07;97676.72;4945207;28;113657;-87
2022/01/05 07:22:00;;;;;;;3.20;1.47;;;5.60;92.00;;;6.02;64.05;97677.97;4949133;28;124024;-86
2022/01/05 07:24:27;;;;;;;1.73;1.27;;;6.10;92.10;;;5.93;63.68;97680.59;4936368;28;123540;-86
2022/01/05 07:26:54;;;;;;;1.20;1.10;;;5.50;91.90;;;5.84;64.62;97695.34;4943955;28;113899;-86
2022/01/05 07:29:20;;;;;;;1.17;1.07;;;5.50;92.00;;;5.78;64.70;97700.13;4950607;28;111969;-86
2022/01/05 07:31:47;;;;;;;3.10;1.43;;;5.40;91.90;;;5.75;64.71;97712.53;4953597;28;124126;-84
2022/01/05 07:34:14;;;;;;;2.03;1.40;;;5.40;92.00;;;5.70;64.27;97718.13;4949233;28;123025;-87
2022/01/05 07:36:41;;;;;;;1.23;1.10;;;6.40;92.40;;;5.65;64.23;97714.69;4948305;28;114041;-87
2022/01/05 07:39:08;;;;;;;1.77;1.30;;;5.30;91.80;;;5.58;64.70;97723.28;4951551;28;113035;-87
2022/01/05 07:41:37;;;;;;;1.30;1.20;;;5.30;91.80;;;5.55;64.34;97723.91;4980635;28;124958;-87
2022/01/05 07:44:05;;;;;;;3.33;1.57;;;5.20;91.60;;;5.52;63.60;97730.00;4957240;28;122943;-86
2022/01/05 07:46:34;;;;;;;4.03;1.80;;;5.10;91.40;;;5.46;62.86;97728.50;4940092;28;113846;-87
2022/01/05 07:49:39;;;;;;;1.90;1.43;;;5.10;91.20;;;5.42;62.78;97730.22;4952372;28;114037;-87
2022/01/05 07:52:26;;;;;;;3.20;1.53;;;5.10;91.00;;;5.37;62.39;97744.00;4941187;28;123883;-87
2022/01/05 07:54:53;;;;;;;2.80;1.43;;;5.00;90.90;;;5.30;62.54;97745.22;4943173;28;123721;-87
2022/01/05 07:57:20;;;;;;;4.73;1.40;;;4.90;90.70;;;5.26;62.98;97748.88;4950449;28;114296;-86
2022/01/05 07:59:48;;;;;;;2.60;1.73;;;4.90;90.70;;;5.21;62.30;97746.22;4954037;28;114167;-88
2022/01/05 08:02:14;;;;;;;2.00;1.50;;;4.90;90.50;;;5.18;62.78;97744.91;4952948;28;123901;-89
2022/01/05 08:04:41;;;;;;;5.07;2.10;;;4.80;90.50;;;5.18;61.89;97750.38;4934755;28;122598;-88
2022/01/05 08:07:10;;;;;;;5.53;1.80;;;5.00;90.60;;;5.14;62.26;97757.59;4947007;28;114155;-88
2022/01/05 08:09:36;;;;;;;4.50;1.80;;;4.80;90.50;;;5.12;62.04;97767.22;4958187;28;111864;-87
2022/01/05 08:12:03;;;;;;;2.60;1.53;;;4.90;90.50;;;5.10;62.58;97759.31;4956761;28;122852;-88
2022/01/05 08:14:29;;;;;;;2.83;1.70;;;4.70;90.50;;;5.06;62.96;97756.38;4956242;28;122472;-87
2022/01/05 08:16:56;;;;;;;6.50;2.13;;;4.90;90.60;;;5.06;62.48;97777.47;4960296;28;113314;-88
2022/01/05 08:19:24;;;;;;;4.83;1.90;;;4.70;90.60;;;5.04;62.18;97782.41;4955446;28;112198;-86
2022/01/05 08:21:50;;;;;;;5.90;2.10;;;4.70;90.60;;;5.01;62.35;97796.72;4959195;28;123140;-86
2022/01/05 08:24:18;;;;;;;2.77;2.07;;;4.70;90.60;;;5.02;62.50;97788.22;4954182;28;123591;-87
2022/01/05 08:26:45;;;;;;;5.60;2.10;;;4.70;90.60;;;5.05;61.82;97819.63;4941758;28;114149;-87
2022/01/05 08:29:12;;;;;;;3.00;1.90;;;4.70;90.50;;;5.01;61.05;97813.13;4953129;28;113230;-88
2022/01/05 08:32:02;;;;;;;4.10;2.10;;;4.60;90.10;;;4.99;61.55;97818.09;4950794;28;123407;-86
2022/01/05 08:34:30;;;;;;;2.90;2.13;;;4.60;90.00;;;4.95;61.31;97825.28;4952204;28;123129;-87
2022/01/05 08:36:58;;;;;;;3.10;1.83;;;4.60;90.00;;;4.93;61.78;97836.53;4949942;28;114620;-87
2022/01/05 08:39:26;;;;;;;3.10;2.10;;;4.80;90.00;;;4.93;61.13;97841.19;4939509;28;113805;-89
2022/01/05 08:41:54;;;;;;;3.20;1.70;;;4.60;89.80;;;4.92;61.28;97842.31;4949602;28;123209;-86
2022/01/05 08:44:20;;;;;;;6.50;2.33;;;4.50;89.40;;;4.86;60.34;97845.13;4950396;28;123780;-88
2022/01/05 08:46:48;;;;;;;4.93;2.23;;;4.50;88.70;;;4.82;60.46;97860.50;4953844;28;113562;-87
2022/01/05 08:49:34;;;;;;;3.23;2.00;;;4.50;88.90;;;4.83;60.96;97856.66;4949933;28;113918;-86
2022/01/05 08:52:03;;;;;;;2.70;1.93;;;4.50;89.00;;;4.81;60.10;97869.03;4950853;28;123549;-88
2022/01/05 08:55:10;;;;;;;8.70;2.03;;;4.40;88.50;;;4.78;59.50;97867.72;4956186;28;122647;-89
2022/01/05 08:57:37;;;;;;;4.23;1.83;;;4.40;88.20;;;4.76;60.00;97871.84;4958358;28;112758;-88
2022/01/05 09:00:06;;;;;;;3.70;2.27;;;4.40;88.20;;;4.74;60.15;97885.81;4949041;28;114151;-89
2022/01/05 09:02:52;;;;;;;4.13;2.23;;;4.40;88.20;;;4.74;58.57;97896.75;4955793;28;123120;-89
2022/01/05 09:05:18;;;;;;;1.97;1.80;;;4.30;87.00;;;4.68;59.10;97887.00;4953253;28;122785;-88
2022/01/05 09:07:45;;;;;;;5.23;2.30;;;4.40;86.60;;;4.69;58.49;97880.41;4949641;28;114029;-89
2022/01/05 09:10:12;;;;;;;3.30;2.20;;;4.30;86.80;;;4.70;58.80;97884.78;4962194;28;113212;-88
2022/01/05 09:12:39;;;;;;;4.77;2.17;;;5.20;87.80;;;4.73;59.04;97889.66;4949558;28;123139;-88
2022/01/05 09:15:06;;;;;;;4.03;2.27;;;4.30;86.90;;;4.76;58.89;97889.06;4960391;28;124256;-90
2022/01/05 09:17:32;;;;;;;5.50;2.20;;;4.40;86.90;;;4.78;58.91;97907.91;4942945;28;114218;-88
2022/01/05 09:19:59;;;;;;;5.00;3.00;;;4.40;86.90;;;4.76;58.56;97904.69;4947310;28;112770;-89
2022/01/05 09:22:27;;;;;;;6.80;2.27;;;4.40;86.70;;;4.76;58.17;97919.16;4971004;28;123487;-88
2022/01/05 09:24:54;;;;;;;7.10;2.60;;;4.40;86.50;;;4.76;58.53;97921.09;4956037;28;122872;-87
2022/01/05 09:35:06;;;;;;;4.30;1.70;;;4.50;86.30;;;4.81;57.84;97929.25;4953130;28;123880;-89
2022/01/05 09:37:39;;;;;;;6.67;1.90;;;4.50;85.80;;;4.80;57.96;97930.31;4957950;28;122248;-89
2022/01/05 09:44:29;;;;;;;7.73;2.70;;;4.40;85.60;;;4.83;57.68;97951.63;4965939;28;113956;-90
2022/01/05 09:47:00;;;;;;;6.43;2.50;;;4.50;85.60;;;4.84;57.99;97956.00;4951569;28;125003;-90
2022/01/05 09:49:53;;;;;;;3.17;1.90;;;4.50;85.60;;;4.89;58.22;97953.19;4948624;28;123627;-89
2022/01/05 09:52:23;;;;;;;5.93;2.60;;;4.50;85.60;;;4.95;58.01;97970.34;4953535;28;114454;-88
2022/01/05 09:54:50;;;;;;;3.77;2.00;;;4.50;85.80;;;5.01;57.27;97982.84;4949362;28;113330;-86
2022/01/05 09:57:41;;;;;;;5.30;2.20;;;4.60;85.70;;;5.10;57.48;97983.81;4951198;28;123526;-89
2022/01/05 10:00:11;;;;;;;3.07;1.90;;;4.60;85.40;;;5.08;57.22;97997.00;4952550;28;123982;-87
2022/01/05 10:02:40;;;;;;;7.20;2.27;;;4.70;84.60;;;5.06;56.85;97988.25;4944426;28;113910;-88
2022/01/05 10:05:12;;;;;;;4.73;2.00;;;5.30;84.70;;;5.03;56.55;97989.66;4955780;28;114160;-89
2022/01/05 10:07:41;;;;;;;6.50;1.90;;;4.60;83.90;;;5.02;56.46;97989.94;4940710;28;122412;-87
2022/01/05 10:10:10;;;;;;;3.77;2.37;;;4.70;84.40;;;5.05;56.18;97986.59;4953929;28;123340;-86
2022/01/05 10:12:37;;;;;;;5.80;2.10;;;5.90;85.30;;;5.09;56.50;97996.69;4970431;28;113447;-87
2022/01/05 10:15:04;;;;;;;4.80;1.80;;;4.70;84.40;;;5.10;56.15;97989.28;4955881;28;112448;-88
2022/01/05 10:17:33;;;;;;;5.43;2.37;;;4.60;83.90;;;5.15;56.60;98005.63;4941895;28;123134;-89
2022/01/05 10:20:07;;;;;;;9.27;2.60;;;4.70;83.70;;;5.16;54.54;98003.69;4944508;28;122113;-88
2022/01/05 10:22:44;;;;;;;7.30;2.30;;;4.70;82.00;;;5.08;53.57;98010.69;4940310;28;113735;-91
2022/01/05 10:25:20;;;;;;;4.70;1.90;;;4.60;80.00;;;5.01;53.65;98002.00;4987263;28;113804;-89
2022/01/05 10:28:03;;;;;;;13.50;2.20;;;4.60;80.30;;;4.98;53.73;98010.81;4935789;28;122515;-88
2022/01/05 10:31:13;;;;;;;7.73;2.13;;;4.60;80.40;;;4.95;53.07;98004.00;4961826;28;123123;-89
2022/01/05 10:33:59;;;;;;;6.10;2.17;;;3.10;78.30;;;4.89;51.87;98007.94;4944508;28;113380;-90
2022/01/05 10:36:46;;;;;;;5.73;2.03;;;4.50;78.00;;;4.88;52.68;98009.03;4938285;28;112447;-88
2022/01/05 10:39:14;;;;;;;4.10;2.70;;;4.50;78.60;;;4.86;51.99;98014.81;4971683;28;123416;-91
2022/01/05 10:41:43;;;;;;;4.93;2.30;;;4.60;78.40;;;4.90;51.82;98020.50;4972972;28;122079;-91
2022/01/05 10:44:23;;;;;;;6.80;2.00;;;4.40;78.10;;;4.92;50.91;98022.97;4989596;28;112714;-90